createdAt,value
2022-08-29T00:03:05.176Z,1019.72
2022-08-29T00:07:56.979Z,1019.67
2022-08-29T00:12:49.310Z,1019.64
2022-08-29T00:17:41.671Z,1019.64
2022-08-29T00:22:34.256Z,1019.69
2022-08-29T00:27:26.682Z,1019.73
2022-08-29T00:32:19.340Z,1019.76
2022-08-29T00:37:11.969Z,1019.77
2022-08-29T00:42:04.715Z,1019.82
2022-08-29T00:46:57.202Z,1019.81
2022-08-29T00:51:49.785Z,1019.86
2022-08-29T00:56:42.331Z,1019.9
2022-08-29T01:01:35.224Z,1019.92
2022-08-29T01:06:27.362Z,1019.97
2022-08-29T01:11:19.743Z,1019.93
2022-08-29T01:16:12.308Z,1019.89
2022-08-29T01:21:04.637Z,1019.9
2022-08-29T01:25:57.270Z,1019.91
2022-08-29T01:30:49.779Z,1019.95
2022-08-29T01:35:42.205Z,1019.98
2022-08-29T01:40:35.006Z,1019.95
2022-08-29T01:45:27.736Z,1019.93
2022-08-29T01:50:20.425Z,1019.99
2022-08-29T01:55:13.120Z,1019.99
2022-08-29T02:00:05.761Z,1020.01
2022-08-29T02:04:58.275Z,1020.1
2022-08-29T02:09:50.355Z,1020.09
2022-08-29T02:14:42.767Z,1020.07
2022-08-29T02:19:35.685Z,1020.09
2022-08-29T02:24:27.676Z,1020.08
2022-08-29T02:29:20.045Z,1020.13
2022-08-29T02:34:12.537Z,1020.09
2022-08-29T02:39:04.915Z,1020.07
2022-08-29T02:43:57.677Z,1020.13
2022-08-29T02:48:54.085Z,1020.18
2022-08-29T02:53:42.669Z,1020.25
2022-08-29T02:58:35.228Z,1020.24
2022-08-29T03:03:27.559Z,1020.27
2022-08-29T03:08:20.164Z,1020.33
2022-08-29T03:13:12.803Z,1020.38
2022-08-29T03:18:05.221Z,1020.3
2022-08-29T03:22:57.930Z,1020.22
2022-08-29T03:27:50.515Z,1020.24
2022-08-29T03:32:42.942Z,1020.27
2022-08-29T03:37:35.352Z,1020.25
2022-08-29T03:42:28.030Z,1020.27
2022-08-29T03:47:20.346Z,1020.32
2022-08-29T03:52:12.946Z,1020.25
2022-08-29T03:57:05.459Z,1020.36
2022-08-29T04:01:57.929Z,1020.39
2022-08-29T04:06:50.137Z,1020.48
2022-08-29T04:11:42.421Z,1020.51
2022-08-29T04:16:34.909Z,1020.54
2022-08-29T04:21:27.553Z,1020.59
2022-08-29T04:26:36.293Z,1020.57
2022-08-29T04:31:12.723Z,1020.57
2022-08-29T04:36:05.176Z,1020.59
2022-08-29T04:40:57.698Z,1020.68
2022-08-29T04:45:50.759Z,1020.76
2022-08-29T04:50:43.160Z,1020.66
2022-08-29T04:55:35.547Z,1020.78
2022-08-29T05:00:28.007Z,1020.75
2022-08-29T05:05:20.346Z,1020.78
2022-08-29T05:10:12.919Z,1020.81
2022-08-29T05:15:05.613Z,1020.82
2022-08-29T05:19:57.902Z,1020.86
2022-08-29T05:24:49.960Z,1020.9
2022-08-29T05:29:41.825Z,1020.92
2022-08-29T05:34:35.249Z,1020.95
2022-08-29T05:39:26.394Z,1020.93
2022-08-29T05:44:19.052Z,1020.95
2022-08-29T05:49:11.381Z,1021.07
2022-08-29T05:54:04.397Z,1021.1
2022-08-29T05:58:57.067Z,1021.02
2022-08-29T06:03:49.866Z,1021.07
2022-08-29T06:08:42.517Z,1020.97
2022-08-29T06:13:35.014Z,1021.01
2022-08-29T06:18:35.430Z,1020.95
2022-08-29T06:23:20.115Z,1020.97
2022-08-29T06:28:12.712Z,1021.06
2022-08-29T06:33:05.275Z,1021.06
2022-08-29T06:37:57.507Z,1021.07
2022-08-29T06:42:50.045Z,1021.11
2022-08-29T06:47:42.716Z,1021.15
2022-08-29T06:52:35.669Z,1021.13
2022-08-29T06:57:27.927Z,1021.11
2022-08-29T07:02:20.691Z,1021.17
2022-08-29T07:07:15.287Z,1021.11
2022-08-29T07:12:07.734Z,1021.12
2022-08-29T07:17:00.331Z,1021.08
2022-08-29T07:21:53.104Z,1021.04
2022-08-29T07:26:45.559Z,1021.07
2022-08-29T07:31:38.144Z,1021.1
2022-08-29T07:36:31.221Z,1021.07
2022-08-29T07:41:24.078Z,1021.11
2022-08-29T07:46:16.912Z,1021.12
2022-08-29T07:51:10.573Z,1021.12
2022-08-29T07:56:02.833Z,1021.08
2022-08-29T08:00:55.547Z,1021.08
2022-08-29T08:05:47.985Z,1021.06
2022-08-29T08:10:41.132Z,1021.01
2022-08-29T08:15:33.880Z,1021.04
2022-08-29T08:20:26.432Z,1021.08
2022-08-29T08:25:19.140Z,1021.13
2022-08-29T08:30:11.899Z,1021.13
2022-08-29T08:35:04.427Z,1021.08
2022-08-29T08:39:56.999Z,1021.06
2022-08-29T08:44:49.684Z,1020.99
2022-08-29T08:49:42.481Z,1020.97
2022-08-29T08:54:34.944Z,1020.94
2022-08-29T08:59:27.471Z,1020.93
2022-08-29T09:04:20.024Z,1020.88
2022-08-29T09:09:14.358Z,1020.87
2022-08-29T09:14:05.253Z,1020.88
2022-08-29T09:18:57.810Z,1020.81
2022-08-29T09:23:50.466Z,1020.79
2022-08-29T09:28:43.113Z,1020.85
2022-08-29T09:33:35.710Z,1020.79
2022-08-29T09:38:28.292Z,1020.76
2022-08-29T09:43:20.913Z,1020.81
2022-08-29T09:48:13.491Z,1020.84
2022-08-29T09:53:10.034Z,1020.85
2022-08-29T09:57:58.703Z,1020.79
2022-08-29T10:02:51.299Z,1020.82
2022-08-29T10:07:43.960Z,1020.79
2022-08-29T10:12:36.548Z,1020.77
2022-08-29T10:17:28.712Z,1020.67
2022-08-29T10:27:13.899Z,1020.64
2022-08-29T10:32:06.429Z,1020.81
2022-08-29T10:36:58.914Z,1020.76
2022-08-29T10:41:51.635Z,1020.72
2022-08-29T10:46:43.843Z,1020.69
2022-08-29T10:51:36.501Z,1020.59
2022-08-29T10:56:28.793Z,1020.57
2022-08-29T11:01:21.372Z,1020.54
2022-08-29T11:06:14.216Z,1020.5
2022-08-29T11:11:06.866Z,1020.45
2022-08-29T11:15:59.684Z,1020.45
2022-08-29T11:20:52.513Z,1020.48
2022-08-29T11:25:45.210Z,1020.41
2022-08-29T11:30:40.404Z,1020.47
2022-08-29T11:35:29.655Z,1020.42
2022-08-29T11:40:47.052Z,1020.34
2022-08-29T11:45:14.931Z,1020.38
2022-08-29T11:50:07.302Z,1020.42
2022-08-29T11:54:59.920Z,1020.4
2022-08-29T11:59:52.783Z,1020.43
2022-08-29T12:04:45.495Z,1020.35
2022-08-29T12:09:38.143Z,1020.31
2022-08-29T12:14:33.226Z,1020.26
2022-08-29T12:19:23.365Z,1020.21
2022-08-29T12:24:15.986Z,1020.18
2022-08-29T12:29:10.097Z,1020.19
2022-08-29T12:34:01.254Z,1020.14
2022-08-29T12:38:54.167Z,1020.07
2022-08-29T12:43:46.978Z,1020.08
2022-08-29T12:48:39.510Z,1020.08
2022-08-29T12:53:32.186Z,1020.01
2022-08-29T12:58:24.778Z,1019.98
2022-08-29T13:03:17.459Z,1019.97
2022-08-29T13:08:12.442Z,1019.95
2022-08-29T13:13:02.447Z,1019.85
2022-08-29T13:17:55.155Z,1019.7
2022-08-29T13:22:47.785Z,1019.71
2022-08-29T13:27:40.644Z,1019.69
2022-08-29T13:32:33.719Z,1019.64
2022-08-29T13:37:26.332Z,1019.55
2022-08-29T13:42:18.937Z,1019.51
2022-08-29T13:47:11.554Z,1019.46
2022-08-29T13:52:06.272Z,1019.47
2022-08-29T13:56:58.635Z,1019.39
2022-08-29T14:02:20.299Z,1019.37
2022-08-29T14:06:43.775Z,1019.37
2022-08-29T14:11:36.703Z,1019.28
2022-08-29T14:16:29.456Z,1019.24
2022-08-29T14:21:22.030Z,1019.17
2022-08-29T14:26:14.731Z,1019.11
2022-08-29T14:31:07.552Z,1019.08
2022-08-29T14:36:00.132Z,1019.08
2022-08-29T14:40:52.773Z,1019.08
2022-08-29T14:45:45.497Z,1019.07
2022-08-29T14:50:37.997Z,1019.04
2022-08-29T14:55:30.675Z,1019.13
2022-08-29T15:00:23.219Z,1019.1
2022-08-29T15:05:15.909Z,1019.02
2022-08-29T15:10:08.335Z,1018.98
2022-08-29T15:15:00.691Z,1018.97
2022-08-29T15:20:33.929Z,1018.93
2022-08-29T15:24:46.168Z,1018.91
2022-08-29T15:29:38.769Z,1018.93
2022-08-29T15:34:31.633Z,1018.96
2022-08-29T15:39:24.480Z,1018.85
2022-08-29T15:44:16.960Z,1018.89
2022-08-29T15:49:09.533Z,1018.81
2022-08-29T15:54:02.297Z,1018.78
2022-08-29T15:58:54.820Z,1018.74
2022-08-29T16:03:47.474Z,1018.66
2022-08-29T16:08:39.962Z,1018.71
2022-08-29T16:13:32.916Z,1018.66
2022-08-29T16:18:25.060Z,1018.67
2022-08-29T16:23:17.877Z,1018.66
2022-08-29T16:28:10.408Z,1018.62
2022-08-29T16:33:03.254Z,1018.62
2022-08-29T16:38:02.944Z,1018.6
2022-08-29T16:42:55.113Z,1018.63
2022-08-29T16:47:40.954Z,1018.57
2022-08-29T16:52:33.427Z,1018.5
2022-08-29T16:57:25.977Z,1018.51
2022-08-29T17:02:18.658Z,1018.48
2022-08-29T17:07:11.304Z,1018.54
2022-08-29T17:16:56.035Z,1018.52
2022-08-29T17:21:49.128Z,1018.54
2022-08-29T17:26:41.878Z,1018.53
2022-08-29T17:31:38.456Z,1018.58
2022-08-29T17:36:26.947Z,1018.6
2022-08-29T17:41:19.438Z,1018.67
2022-08-29T17:46:12.116Z,1018.62
2022-08-29T17:51:04.123Z,1018.62
2022-08-29T17:55:56.475Z,1018.71
2022-08-29T18:00:49.142Z,1018.71
2022-08-29T18:05:44.255Z,1018.71
2022-08-29T18:10:36.333Z,1018.79
2022-08-29T18:15:29.188Z,1018.81
2022-08-29T18:20:21.978Z,1018.83
2022-08-29T18:25:14.386Z,1018.83
2022-08-29T18:30:06.941Z,1018.94
2022-08-29T18:35:00.883Z,1019.03
2022-08-29T18:39:51.623Z,1019.05
2022-08-29T18:44:44.145Z,1019.06
2022-08-29T18:49:36.724Z,1019.1
2022-08-29T18:54:28.818Z,1019.15
2022-08-29T18:59:21.262Z,1019.18
2022-08-29T19:04:13.904Z,1019.26
2022-08-29T19:09:06.343Z,1019.28
2022-08-29T19:13:58.922Z,1019.35
2022-08-29T19:18:51.339Z,1019.42
2022-08-29T19:23:43.574Z,1019.56
2022-08-29T19:28:36.231Z,1019.58
2022-08-29T19:33:28.810Z,1019.55
2022-08-29T19:38:21.590Z,1019.54
2022-08-29T19:43:14.530Z,1019.61
2022-08-29T19:48:07.053Z,1019.65
2022-08-29T19:53:00.044Z,1019.64
2022-08-29T19:57:52.836Z,1019.61
2022-08-29T20:02:45.383Z,1019.65
2022-08-29T20:07:37.658Z,1019.71
2022-08-29T20:12:30.329Z,1019.73
2022-08-29T20:17:23.107Z,1019.7
2022-08-29T20:22:15.707Z,1019.73
2022-08-29T20:27:08.412Z,1019.87
2022-08-29T20:32:01.219Z,1019.91
2022-08-29T20:36:53.678Z,1019.98
2022-08-29T20:41:46.229Z,1019.99
2022-08-29T20:46:39.015Z,1020.05
2022-08-29T20:51:31.413Z,1019.99
2022-08-29T20:56:23.985Z,1020.07
2022-08-29T21:01:16.736Z,1020.06
2022-08-29T21:06:09.211Z,1020.05
2022-08-29T21:11:01.997Z,1020.01
2022-08-29T21:15:54.636Z,1020.04
2022-08-29T21:20:53.642Z,1020.06
2022-08-29T21:25:39.727Z,1020.09
2022-08-29T21:30:32.469Z,1020.18
2022-08-29T21:35:24.901Z,1020.14
2022-08-29T21:40:17.589Z,1020.14
2022-08-29T21:45:10.219Z,1020.08
2022-08-29T21:50:02.614Z,1020.06
2022-08-29T21:54:55.156Z,1020.1
2022-08-29T21:59:47.462Z,1020.07
2022-08-29T22:04:39.999Z,1020.12
2022-08-29T22:09:32.570Z,1020.22
2022-08-29T22:14:25.070Z,1020.23
2022-08-29T22:19:17.551Z,1020.23
2022-08-29T22:24:09.930Z,1020.22
2022-08-29T22:29:02.421Z,1020.18
2022-08-29T22:33:55.079Z,1020.15
2022-08-29T22:38:47.703Z,1020.05
2022-08-29T22:43:40.425Z,1020.17
2022-08-29T22:48:32.703Z,1020.17
2022-08-29T22:53:25.203Z,1020.17
2022-08-29T22:58:17.710Z,1020.17
2022-08-29T23:03:10.246Z,1020.16
2022-08-29T23:08:02.627Z,1020.18
2022-08-29T23:12:55.130Z,1020.17
2022-08-29T23:17:47.805Z,1020.13
2022-08-29T23:22:41.034Z,1020.14
2022-08-29T23:27:32.870Z,1020.15
2022-08-29T23:32:25.312Z,1020.19
2022-08-29T23:37:17.985Z,1020.14
2022-08-29T23:42:10.486Z,1020.13
2022-08-29T23:47:02.990Z,1020.19
2022-08-29T23:51:55.450Z,1020.2
2022-08-29T23:56:48.006Z,1020.21
